General Leobardo C Ruiz International Airport
MMZC : now visible

Airfield :











YOU CAN JOIN US ON...

 
LOGIN :

Register | Disclaimer

   EN    FR    IT 

 









Legend :    VFR   Marginal VFR   IFR   Intensive IFR   Very Intensive IFR
Visi :
Ceiling :
>= 8 km
>= 3000ft
5 to 8 km
1000 to 3000 ft
1500m to 5 km
500 to 1000 ft
800 to 1500m
200 to 500 ft
< 800m
< 200 ft
Symbols :   Thunderstorms  Fog  Heavy snow  Heavy precipitations  Wind > 20 kt







- Airport Elevation : 7141 ft
- IATA code : ZCL


MMZC - General Leobardo C Ruiz International

CURRENT METAR :
  • 221740Z 20015KT 10SM SKC 26/M07 A3016

EXPIRED METARs :
  • 221647Z 20020KT 10SM SKC 25/M13 A3016
  • 221544Z 20010KT 10SM SKC 22/M05 A3018

TAF TAF MMZC
Valid from the 22 at 18:00 until the 24 at 00:00 UTC


221640Z 2218/2324 20020KT P6SM SKC TX29/2221Z TN10/2312Z
FM230100 24010KT P6SM SKC
FM232000 24015KT P6SM SKC
MMFR FIR / North America



MET'MAP, your aeronautical weather chart ! - Copyright ORBIFLY December 2007 - Disclaimer

ORBIFLY MET'MAP TEAM :

Programming & Development : Alexandra Zaïnal
Concept & Development : Baudouin d'Aumeries
Co-Development & Prog : Marc-Olivier Méhu
Technical & hardware support : Manuel Goepfert

Contact : metmap@orbifly.com




SOURCES & CREDITS :

   NOAA       Earth
Advisory